NATURA VA

 METAR AND TAF INFORMATION
METAR FOR GCGM
ADDS - METARS form results

(0324 UTC 16 January 2019)
Data provider http://aviationweather.gov/metar/data/
 
METAR text: GCGM 160300Z AUTO VRB05KT 9999 NCD 16/09 Q1022 RMK R09/30005KT 270V350 ARP/31004KT 280V350
Conditions at: GCGM (LA GOMERA ARPT , ES) observed 0300 UTC 16 January 2019
Temperature: 16.0°C (61°F)
Dewpoint: 9.0°C (48°F) [RH = 63%]
Pressure (altimeter): 30.18 inches Hg (1022.0 mb)
Winds: variable direction winds at 6 MPH (5 knots; 2.6 m/s)
Visibility: 6 or more miles (10+ km)
Ceiling: at least 12,000 feet AGL
Clouds: sky clear below 12,000 feet AGL
Weather: no significant weather observed at this time

METAR text: GCGM 160230Z AUTO VRB06G17KT 9999 NCD 16/09 Q1022 RMK R09/31004KT 260V360 ARP/31003KT 260V020
Conditions at: GCGM (LA GOMERA ARPT , ES) observed 0230 UTC 16 January 2019
Temperature: 16.0°C (61°F)
Dewpoint: 9.0°C (48°F) [RH = 63%]
Pressure (altimeter): 30.18 inches Hg (1022.0 mb)
Winds: variable direction winds at 7 MPH (6 knots; 3.1 m/s)
gusting to 20 MPH (17 knots; 8.7 m/s)
Visibility: 6 or more miles (10+ km)
Ceiling: at least 12,000 feet AGL
Clouds: sky clear below 12,000 feet AGL
Weather: no significant weather observed at this time

Forecast for: GCGM (LA GOMERA ARPT , ES)
Text: TAF GCGM 160200Z 1603/1703 34006KT 9999 FEW020 TX21/1614Z TN16/1606Z
Forecast period: 0300 UTC 16 January 2019 to 0300 UTC 17 January 2019
Forecast type: FROM: standard forecast or significant change
Winds: from the NNW (340 degrees) at 7 MPH (6 knots; 3.1 m/s)
Visibility: 6 or more miles 10+ km)
Ceiling: at least 12,000 feet AGL
Clouds: few clouds at 2000 feet AGL
Weather: no significant weather forecast for this period

 AIRPORT MAP

 RUNWAY INFORMATION
Runway 09 Runway length 4921 ft Runway width 98 ft
Runway elevation 716 ft Runway displaced threshold 0 ft Runway heading 81
Runway 27 Runway length 4921 ft Runway width 98 ft
Runway elevation 712 ft Runway displaced threshold 0 ft Runway heading 261

 AIRPORT FREQUENCIES
Type GND Name GND Frequency 121.7 MHZ
Type TWR Name TWR Frequency 118.4 MHZ

 AIRPORT NEAR NAVIGATION AIDS
Type VOR-DME Name La Gomera Frequency 116000 KHZ



Powered by Virtual Airlines Manager [v2.6.2]